Weather reports worldwide

Advertisment
Kahler Asten, Germany (10427): temperature & dewpoint: 07.07.2020 06:00:00 - 13.07.2020 06:00:00 (CEST)Kahler Asten, Germany (10427): temperature 5cm & temperature -5cm: 07.07.2020 06:00:00 - 13.07.2020 06:00:00 (CEST)Kahler Asten, Germany (10427): temperature -20cm & temperature -100cm: 07.07.2020 06:00:00 - 13.07.2020 06:00:00 (CEST)Kahler Asten, Germany (10427): wind speed & gusts: 07.07.2020 06:00:00 - 13.07.2020 06:00:00 (CEST)Kahler Asten, Germany (10427): wind direction: 07.07.2020 06:00:00 - 13.07.2020 06:00:00 (CEST)Kahler Asten, Germany (10427): visibility: 07.07.2020 06:00:00 - 13.07.2020 06:00:00 (CEST)Kahler Asten, Germany (10427): sunshine duration: 07.07.2020 06:00:00 - 13.07.2020 06:00:00 (CEST)Kahler Asten, Germany (10427): precipitation: 07.07.2020 06:00:00 - 13.07.2020 06:00:00 (CEST)
Date & Time tt [°C] td [°C] tt 5cm [°C] tt -5cm [°C] tt -20cm [°C] tt -100cm [°C] ff [km/h] ff [kn] fx [km/h] fx [kn] dd vv [km] sd [min] rr [mm]
13.07.2020 06:00:00 10,7 4,3 8,5 8,5 12,4 12,3 17 9 23 12 SE 75 0 0,0
13.07.2020 05:00:00 10,3 4,5 7,4 8,7 12,8 12,3 18 10 23 12 ESE 75 0 0,0
13.07.2020 04:00:00 10,2 4,4 7,9 9,0 13,1 12,3 18 10 27 14 E 73 0 0,0
13.07.2020 03:00:00 10,3 4,7 8,4 9,4 13,5 12,3 18 10 27 15 E 75 0 0,0
13.07.2020 02:00:00 10,6 4,9 8,5 9,8 13,9 12,3 18 10 27 15 E 75 0 0,0
13.07.2020 01:00:00 10,7 4,5 8,3 10,4 14,4 12,3 16 9 24 13 E 75 0 0,0
13.07.2020 00:00:00 10,8 4,2 7,7 11,2 14,9 12,3 16 9 22 12 ENE 75 0 0,0
12.07.2020 23:00:00 11,0 4,6 8,1 12,3 15,3 12,3 14 8 19 10 NE 75 0 0,0
12.07.2020 22:00:00 11,7 4,8 9,2 13,7 15,6 12,3 16 9 21 11 NE 75 21 0,0
12.07.2020 21:00:00 13,0 5,3 11,1 15,5 15,7 12,3 11 6 15 8 NE 73 39 0,0
12.07.2020 20:00:00 14,7 5,4 14,9 16,9 15,7 12,3 8 4 17 9 ENE 70 57 0,0
12.07.2020 19:00:00 14,7 5,2 17,2 17,3 15,7 12,3 6 3 21 11 ENE 69 25 0,0
12.07.2020 18:00:00 13,7 5,9 14,0 18,5 15,4 12,3 16 8 22 12 NE 61 5 0,0
12.07.2020 17:00:00 14,9 5,8 18,0 21,0 14,9 12,3 10 6 23 12 NNE 75 35 0,0
12.07.2020 16:00:00 14,7 6,5 19,6 21,5 14,3 12,3 16 9 25 14 NNE 68 47 0,0
12.07.2020 15:00:00 13,9 5,2 19,2 18,2 13,9 12,3 9 5 19 11 N 74 14 0,0
12.07.2020 14:00:00 13,2 5,2 15,4 17,4 13,5 12,3 5 3 17 9 NNE 74 4 0,0
12.07.2020 13:00:00 12,9 5,8 15,2 17,8 13,0 12,3 13 7 20 11 NNW 75 13 0,0
12.07.2020 12:00:00 12,5 5,5 16,4 17,5 12,5 12,3 12 6 21 11 N 65 29 0,0
12.07.2020 11:00:00 12,2 6,1 13,6 15,3 12,0 12,3 3 1 15 8 WSW 56 10 0,0
12.07.2020 10:00:00 11,6 6,9 15,1 15,2 11,7 12,3 12 6 17 9 NNW 58 38 0,0
12.07.2020 09:00:00 10,6 7,7 14,0 13,0 11,4 12,3 9 5 14 8 N 42 54 0,0
12.07.2020 08:00:00 10,0 7,0 11,4 10,4 11,5 12,3 9 5 16 9 N 64 60 0,0
12.07.2020 07:00:00 9,0 6,2 7,9 8,1 11,8 12,3 13 7 16 8 N 55 55 0,0
12.07.2020 06:00:00 8,0 5,8 4,3 7,6 12,1 12,3 10 5 14 7 NNE 52 0 0,0
12.07.2020 05:00:00 7,9 5,7 4,9 8,0 12,5 12,3 14 8 16 8 N 56 0 0,0
12.07.2020 04:00:00 8,3 5,5 4,8 8,4 12,8 12,3 11 6 15 8 NNE 59 0 0,0
12.07.2020 03:00:00 8,1 5,4 5,3 9,0 13,2 12,3 13 7 16 9 NE 62 0 0,0
12.07.2020 02:00:00 8,0 5,2 5,3 9,6 13,7 12,3 15 8 16 9 NE 68 0 0,0
12.07.2020 01:00:00 8,2 5,7 5,7 10,4 14,1 12,3 16 8 19 10 N 53 0 0,0
12.07.2020 00:00:00 8,4 6,0 6,5 11,1 14,5 12,3 16 9 22 12 N 60 0 0,0
11.07.2020 23:00:00 8,9 5,9 7,5 11,9 14,9 12,3 16 9 23 12 N 75 0 0,0
11.07.2020 22:00:00 9,5 6,3 7,9 13,1 15,2 12,3 20 11 29 16 N 62 0 0,0
11.07.2020 21:00:00 10,7 6,4 9,8 14,5 15,5 12,3 18 10 30 16 N 56 28 0,0
11.07.2020 20:00:00 12,7 3,8 11,3 16,1 15,5 12,3 13 7 23 12 WNW 65 53 0,0
11.07.2020 19:00:00 14,0 5,6 15,6 17,6 15,3 12,3 11 6 21 11 WNW 55 60 0,0
11.07.2020 18:00:00 13,1 5,5 15,9 18,0 15,2 12,3 15 8 26 14 NW 75 42 0,0
11.07.2020 17:00:00 12,6 5,7 13,8 18,3 14,9 12,3 17 9 27 14 NNW 75 5 0,0
11.07.2020 16:00:00 13,0 4,7 17,0 19,2 14,6 12,3 15 8 27 14 N 75 22 0,0
11.07.2020 15:00:00 12,1 5,8 14,1 19,2 14,2 12,3 13 7 26 14 NW 58 17 0,0
11.07.2020 14:00:00 11,8 4,4 14,0 18,9 13,6 12,3 17 9 25 13 NW 69 22 0,0
11.07.2020 13:00:00 12,1 6,0 18,2 17,8 13,2 12,3 14 7 27 15 NW 75 21 0,0
11.07.2020 12:00:00 10,6 5,4 12,4 18,1 12,7 12,3 14 8 24 13 N 75 23 0,0
11.07.2020 11:00:00 10,2 5,1 11,9 17,8 12,1 12,3 9 5 21 11 NNW 64 40 0,0
11.07.2020 10:00:00 10,1 6,0 15,4 15,5 11,7 12,3 10 6 19 11 N 57 55 0,0
11.07.2020 09:00:00 8,6 6,0 10,2 12,7 11,5 12,3 11 6 16 9 NNW 50 56 0,0
11.07.2020 08:00:00 7,6 6,9 8,7 10,1 11,6 12,3 10 6 15 8 NNW 7 25 0,0
11.07.2020 07:00:00 7,3 6,5 7,2 9,4 11,7 12,3 9 5 14 8 NNW 6 26 0,0
11.07.2020 06:00:00 6,9 6,2 5,7 9,3 11,8 12,3 6 3 18 10 NNW 11 0 0,0
11.07.2020 05:00:00 6,9 6,2 6,3 9,3 12,0 12,3 10 6 16 8 NW 4,7 0 0,0
11.07.2020 04:00:00 7,4 7,0 7,3 9,6 12,2 12,3 10 5 24 13 NW 3,8 0 0,0
11.07.2020 03:00:00 7,6 7,2 7,4 9,6 12,5 12,3 12 7 23 12 NW 4,5 0 0,0
11.07.2020 02:00:00 7,5 7,1 6,3 9,7 12,7 12,3 12 6 18 10 NNW 6 0 0,0
11.07.2020 01:00:00 7,3 6,8 5,6 9,7 13,1 12,3 11 6 22 12 NNW 8 0 0,0
11.07.2020 00:00:00 7,7 7,2 6,6 10,5 13,3 12,3 18 10 26 14 NNW 15 0 0,0
10.07.2020 23:00:00 8,2 7,9 8,1 11,2 13,6 12,3 16 9 24 13 NNW 0,1 0 0,0
10.07.2020 22:00:00 8,4 7,5 7,4 11,8 13,8 12,3 16 9 28 15 NNW 28 0 0,0
10.07.2020 21:00:00 9,3 8,5 9,3 12,5 14,0 12,3 18 10 41 22 NW 33 14 0,0
10.07.2020 20:00:00 9,7 8,6 9,4 13,5 14,1 12,3 30 16 44 24 NW 46 2 0,0
10.07.2020 19:00:00 9,9 9,1 9,9 14,3 14,1 12,3 29 16 42 23 NW 19 0 0,6
10.07.2020 18:00:00 11,4 9,7 12,2 15,3 14,0 12,3 24 13 41 22 WNW 41 11 0,0
10.07.2020 17:00:00 10,5 9,6 11,0 14,5 14,0 12,4 27 15 50 27 NW 16 0 0,0
10.07.2020 16:00:00 11,0 10,2 11,3 15,1 14,0 12,4 29 16 50 27 WNW 2,7 1 0,0
10.07.2020 15:00:00 11,8 11,3 11,9 15,1 13,8 12,3 27 15 60 33 W 0,4 1 1,8
10.07.2020 14:00:00 13,8 12,4 14,4 15,5 13,7 12,3 31 17 61 33 W 44 1 0,2
10.07.2020 13:00:00 13,3 11,6 13,6 14,5 13,6 12,3 30 16 58 31 WSW 36 0 0,1
10.07.2020 12:00:00 12,5 11,6 12,4 13,9 13,6 12,3 31 17 53 28 WSW 4,9 0 0,0
10.07.2020 11:00:00 12,4 11,8 12,6 13,9 13,5 12,3 30 16 55 30 W 6 0 0,0
10.07.2020 10:00:00 13,3 11,8 13,3 14,3 13,4 12,3 36 20 59 32 WSW 34 0 0,0
10.07.2020 09:00:00 14,2 11,9 13,9 14,0 13,4 12,3 27 15 44 24 WSW 61 0 0,0
10.07.2020 08:00:00 13,8 12,1 13,5 13,4 13,4 12,3 24 13 40 21 WSW 39 0 0,0
10.07.2020 07:00:00 14,4 11,7 13,3 12,8 13,4 12,4 21 12 35 19 SW 47 0 0,0
10.07.2020 06:00:00 14,0 11,5 12,7 12,5 13,5 12,4 21 12 27 15 S 48 0 0,0
10.07.2020 05:00:00 13,5 11,8 12,6 12,5 13,7 12,4 21 11 24 13 SE 39 0 0,0
10.07.2020 04:00:00 12,9 10,5 11,5 12,4 13,8 12,4 12 7 16 9 SSE 71 0 0,0
10.07.2020 03:00:00 13,0 10,5 11,2 12,5 14,0 12,4 3 2 19 10 S 73 0 0,0
10.07.2020 02:00:00 13,3 10,3 11,7 12,8 14,2 12,4 18 10 22 12 NW 75 0 0,0
10.07.2020 01:00:00 13,2 10,9 11,6 13,0 14,5 12,4 18 10 23 12 WNW 65 0 0,0
10.07.2020 00:00:00 13,3 11,7 11,7 13,4 14,7 12,4 16 9 24 13 WNW 39 0 0,0
09.07.2020 23:00:00 13,6 12,1 12,0 14,2 14,9 12,4 20 11 29 15 W 35 0 0,0
09.07.2020 22:00:00 13,9 12,3 13,0 15,0 15,0 12,4 16 9 31 17 W 36 0 0,0
09.07.2020 21:00:00 14,3 13,2 13,8 15,7 15,1 12,4 20 11 34 19 W 23 0 0,1
09.07.2020 20:00:00 14,7 13,4 14,5 16,3 15,1 12,4 22 12 34 18 W 20 0 0,0
09.07.2020 19:00:00 14,5 13,6 14,5 16,7 15,1 12,4 20 11 34 18 WSW 9 0 0,7
09.07.2020 18:00:00 15,0 13,7 14,8 17,1 15,0 12,4 19 11 39 21 W 8 0 0,8
09.07.2020 17:00:00 16,3 12,4 16,2 18,2 14,7 12,4 21 11 40 21 WSW 75 1 0,0
09.07.2020 16:00:00 17,4 12,4 18,4 19,7 14,2 12,4 26 14 48 26 WSW 58 18 0,0
09.07.2020 15:00:00 16,4 12,6 17,5 18,9 13,7 12,4 30 16 49 26 WSW 52 7 0,0
09.07.2020 14:00:00 16,3 13,6 18,1 18,6 13,2 12,4 26 14 45 25 WSW 66 20 0,0
09.07.2020 13:00:00 14,8 14,2 16,4 16,0 13,0 12,4 21 12 48 26 WSW 32 4 0,0
09.07.2020 12:00:00 13,4 13,0 13,6 14,4 12,8 12,4 22 12 42 23 WSW 0,3 0 0,0
09.07.2020 11:00:00 13,2 12,9 13,8 13,7 12,7 12,5 27 15 46 25 WSW 0,3 0 0,0
09.07.2020 10:00:00 12,9 12,6 13,0 13,1 12,6 12,5 21 12 39 21 WSW 0,1 0 0,1
09.07.2020 09:00:00 12,6 12,3 12,6 12,7 12,5 12,5 21 11 39 21 SW 0,1 0 0,2
09.07.2020 08:00:00 12,4 12,0 12,4 12,4 12,5 12,5 21 12 35 19 SW 0,2 0 1,6
09.07.2020 07:00:00 12,2 11,9 12,1 12,1 12,5 12,5 23 12 34 18 WSW 0,2 0 1,4
09.07.2020 06:00:00 12,0 11,7 11,9 12,0 12,5 12,5 17 9 25 14 SW 0,2 0 0,4
09.07.2020 05:00:00 11,7 11,4 11,6 11,9 12,6 12,5 15 8 23 13 WSW 0,2 0 0,1
09.07.2020 04:00:00 11,3 11,0 11,2 11,8 12,6 12,5 16 9 28 15 SW 0,1 0 0,1
09.07.2020 03:00:00 11,0 10,7 10,9 11,8 12,7 12,5 13 7 19 11 SSW 0,2 0 0,4
09.07.2020 02:00:00 10,9 10,5 10,8 11,8 12,7 12,5 11 6 16 9 SSW 0,3 0 1,0
09.07.2020 01:00:00 10,8 10,5 10,8 11,9 12,8 12,5 12 6 18 10 SSW 0,2 0 0,8
09.07.2020 00:00:00 10,7 10,4 10,6 11,9 12,9 12,5 13 7 21 11 SW 0,2 0 0,3
08.07.2020 23:00:00 10,5 10,1 10,5 12,1 13,0 12,5 16 9 21 11 SW 0,1 0 0,0
08.07.2020 22:00:00 10,4 10,0 10,3 12,3 13,0 12,5 14 8 20 11 SW 0,1 0 0,0
08.07.2020 21:00:00 10,3 9,9 10,4 12,6 13,1 12,5 11 6 19 10 WSW 0,1 0 0,0
08.07.2020 20:00:00 10,2 9,8 10,3 13,0 13,1 12,5 12 6 22 12 SW 0,2 0 0,0
08.07.2020 19:00:00 10,2 9,9 10,6 13,4 13,0 12,5 12 7 26 14 WSW 0,2 0 0,0
08.07.2020 18:00:00 10,0 9,5 10,5 13,5 13,0 12,5 19 11 27 15 W 0,6 0 0,0
08.07.2020 17:00:00 9,9 9,5 10,5 13,5 12,9 12,5 14 7 24 13 WSW 0,5 0 0,0
08.07.2020 16:00:00 10,1 9,5 11,4 13,9 12,7 12,5 18 10 28 15 W 14 0 0,0
08.07.2020 15:00:00 9,6 9,2 10,7 13,6 12,6 12,5 17 9 26 14 W 9 0 0,1
08.07.2020 14:00:00 9,2 8,9 10,3 13,2 12,4 12,5 13 7 21 12 WSW 0,1 0 0,5
08.07.2020 13:00:00 8,8 8,4 9,6 12,7 12,4 12,5 15 8 25 13 WSW 0,3 0 0,5
08.07.2020 12:00:00 8,6 8,2 9,3 11,8 12,3 12,5 16 9 25 14 WSW 0,4 0 0,0
08.07.2020 11:00:00 8,6 8,2 9,3 11,6 12,3 12,5 15 8 24 13 WSW 4,8 0 0,1
08.07.2020 10:00:00 8,2 7,8 8,6 10,9 12,4 12,5 16 9 30 16 WSW 0,1 0 0,3
08.07.2020 09:00:00 8,0 7,6 8,4 10,6 12,5 12,5 22 12 40 21 W 3,7 0 0,7
08.07.2020 08:00:00 8,3 7,9 8,3 10,6 12,6 12,5 25 13 42 23 WSW 0,2 0 0,5
08.07.2020 07:00:00 8,3 7,3 8,1 10,6 12,8 12,5 18 10 29 16 WSW 19 0 0,3
08.07.2020 06:00:00 8,4 7,6 8,1 10,7 13,0 12,5 15 8 37 20 SW 12 0 0,3
08.07.2020 05:00:00 8,3 7,9 8,2 10,9 13,1 12,5 16 9 23 13 W 0,2 0 0,5
08.07.2020 04:00:00 8,9 7,5 8,5 11,2 13,3 12,6 14 7 19 11 WSW 25 0 0,0
08.07.2020 03:00:00 8,6 7,4 8,3 11,3 13,5 12,6 8 4 16 8 WSW 6 0 0,2
08.07.2020 02:00:00 8,6 7,5 8,2 11,4 13,7 12,6 8 4 16 8 N 12 0 0,0
08.07.2020 01:00:00 9,3 7,1 8,5 11,7 14,0 12,6 11 6 19 10 W 47 0 0,0
08.07.2020 00:00:00 10,0 7,0 9,2 12,0 14,2 12,6 12 6 16 9 W 50 0 0,0
07.07.2020 23:00:00 10,4 6,5 9,7 12,3 14,5 12,6 11 6 19 10 W 55 0 0,0
07.07.2020 22:00:00 10,7 6,7 10,1 13,0 14,8 12,6 13 7 19 10 W 58 0 0,0
07.07.2020 21:00:00 11,2 6,6 10,6 13,7 15,1 12,6 14 7 35 19 W 48 0 0,0
07.07.2020 20:00:00 11,9 6,4 11,7 14,6 15,3 12,6 18 10 35 19 W 56 0 0,0
07.07.2020 19:00:00 12,4 7,2 13,0 15,4 15,5 12,6 21 11 34 18 W 55 7 0,0
07.07.2020 18:00:00 13,2 6,0 14,2 16,2 15,6 12,6 21 11 37 20 W 53 2 0,0
07.07.2020 17:00:00 13,2 5,5 13,9 17,6 15,5 12,6 19 10 37 20 WSW 75 4 0,0
07.07.2020 16:00:00 13,7 5,5 14,5 20,2 15,1 12,6 19 10 36 19 W 75 34 0,0
07.07.2020 15:00:00 13,6 5,7 14,8 20,1 14,8 12,6 18 10 34 19 SSW 75 30 0,0
07.07.2020 14:00:00 12,6 5,8 13,8 19,6 14,3 12,6 18 10 31 17 WSW 67 4 0,0
07.07.2020 13:00:00 13,3 5,4 17,9 22,1 13,5 12,6 21 11 29 16 W 65 52 0,0
07.07.2020 12:00:00 12,0 5,5 16,1 20,8 12,7 12,7 14 7 24 13 W 45 57 0,0
07.07.2020 11:00:00 11,0 6,0 14,2 18,6 12,1 12,7 11 6 23 12 SW 75 60 0,0
07.07.2020 10:00:00 9,2 6,0 12,1 15,4 11,7 12,7 11 6 23 12 W 51 50 0,0
07.07.2020 09:00:00 8,0 5,7 10,0 12,9 11,5 12,7 14 8 20 11 W 52 44 0,0
07.07.2020 08:00:00 7,0 5,9 8,4 10,2 11,5 12,7 12 6 23 12 W 27 26 0,0
07.07.2020 07:00:00 6,2 5,4 5,7 8,8 11,7 12,7 17 9 23 12 NW 16 3 0,0
07.07.2020 06:00:00 6,4 5,6 6,0 9,0 11,8 12,7 14 8 27 15 WNW 18 0 0,0

tt = temperature
td = dewpoint
tt 5cm = temperature 5cm
tt -5cm = temperature -5cm
tt -20cm = temperature -20cm
tt -100cm = temperature -100cm
ff = wind speed
fx = gusts
dd = wind direction
vv = visibility
sd = sunshine duration
rr = precipitation

Next stations